Latest Weather Observations for Cape Otway

IDV60801

Issued at 2:32 pm EDT Friday 20 January 2017 (issued every 30 minutes, with the page automatically refreshed every 10 minutes)

About weather observations | Map of weather stations | Latest weather observations for VIC | Other Formats
Station Details ID: 090015 Name: CAPE OTWAY LIGHTHOUSE Lat: -38.86 Lon: 143.51 Height: 82.0 m
Data from the previous 72 hours. | See also: Recent months at Cape Otway
Date/Time
EDT
Temp
°C
App
Temp
°C
Dew
Point
°C
Rel
Hum
%
Delta-T
°C
Wind Press
QNH
hPa
Press
MSL
hPa
Rain since
9am
mm
Dir  Spd
km/h
Gust
km/h
Spd
kts
Gust
kts
20/02:30pm 15.5 7.6 10.7 73 2.6 SW 43 56 23 30 1004.2 1004.0 0.0
20/02:00pm 15.4 7.6 11.0 75 2.4 SW 43 56 23 30 1003.5 1003.3 0.0
20/01:30pm 15.8 8.1 11.6 76 2.3 SW 43 56 23 30 1003.1 1002.9 0.0
20/01:00pm 15.8 6.8 11.6 76 2.3 SW 50 65 27 35 1002.7 1002.5 0.0
20/12:30pm 15.7 7.6 11.9 78 2.1 SW 46 63 25 34 1002.2 1002.1 0.0
20/12:00pm 16.1 8.7 12.5 79 2.0 SW 43 61 23 33 1001.5 1001.4 0.0
20/11:35am 15.9 9.3 12.6 81 1.8 SW 39 59 21 32 1000.7 1000.5 0.0
20/11:30am 16.0 9.1 12.9 82 1.7 SW 41 56 22 30 1000.5 1000.3 0.0
20/11:00am 15.2 9.4 12.7 85 1.4 SW 35 44 19 24 999.5 999.3 0.0
20/10:30am 14.6 7.0 12.5 87 1.2 SW 44 54 24 29 998.9 998.7 0.0
20/10:00am 14.5 6.6 12.7 89 1.0 SW 46 61 25 33 998.2 998.0 0.0
20/09:37am 14.6 7.4 13.0 90 0.9 SW 43 61 23 33 997.9 997.7 0.0
20/09:30am 14.7 7.3 13.2 91 0.8 SW 44 61 24 33 997.7 997.5 0.0
20/09:00am 14.8 8.9 13.5 92 0.7 SW 37 54 20 29 997.2 997.0 18.0
20/08:30am 14.4 7.3 13.3 93 0.6 SSW 43 57 23 31 996.6 996.4 18.0
20/08:08am 14.3 7.9 13.2 93 0.6 SSW 39 57 21 31 996.3 996.1 18.0
20/08:00am 14.3 8.7 13.3 94 0.6 SSW 35 50 19 27 996.3 996.1 18.0
20/07:30am 14.2 8.1 13.1 93 0.6 SW 37 46 20 25 995.9 995.7 18.0
20/07:00am 14.9 9.5 13.8 93 0.6 SW 35 46 19 25 995.9 995.7 17.8
20/06:30am 15.4 11.0 14.1 92 0.7 SW 30 46 16 25 995.3 995.1 17.4
20/06:23am 15.6 12.0 14.3 92 0.7 WSW 26 39 14 21 995.1 994.9 17.0
20/06:00am 15.7 15.4 14.4 92 0.7 SW 9 13 5 7 994.1 993.9 14.0
20/05:58am 15.7 15.4 14.4 92 0.7 SW 9 17 5 9 994.0 993.8 13.8
20/05:30am 15.2 13.6 13.9 92 0.7 ENE 15 19 8 10 991.9 991.7 13.6
20/05:00am 14.8 12.7 13.5 92 0.7 ENE 17 28 9 15 992.5 992.3 13.0
20/04:30am 14.5 12.2 13.0 91 0.8 ENE 17 26 9 14 993.3 993.1 13.0
20/04:00am 13.7 9.5 12.3 91 0.8 ENE 26 37 14 20 994.2 994.0 13.0
20/03:41am 13.7 9.0 12.1 90 0.9 ENE 28 46 15 25 994.8 994.6 13.0
20/03:30am 13.5 8.0 11.9 90 0.9 NE 32 44 17 24 994.3 994.1 12.2
20/03:27am 13.5 8.8 11.9 90 0.9 NE 28 43 15 23 995.1 994.9 12.0
20/03:20am 13.8 10.2 12.0 89 1.0 NE 22 33 12 18 997.1 996.9 11.0
20/03:00am 13.8 11.2 12.0 89 1.0 NNE 17 20 9 11 999.1 998.9 8.8
20/02:50am 13.9 11.3 11.9 88 1.1 NNE 17 20 9 11 1000.1 999.9 7.6
20/02:30am 14.4 12.3 12.4 88 1.1 NW 15 20 8 11 1002.1 1002.0 6.6
20/02:00am 15.7 15.5 13.7 88 1.1 NW 7 11 4 6 1002.6 1002.4 5.8
20/01:30am 17.2 18.5 15.2 88 1.2 W 2 9 1 5 1003.4 1003.2 3.8
20/01:00am 17.2 17.1 15.0 87 1.3 SSW 9 17 5 9 1003.5 1003.3 2.2
20/12:30am 17.4 16.1 14.9 85 1.5 S 15 28 8 15 1003.0 1002.8 0.0
20/12:27am 17.4 15.8 14.9 85 1.5 E 17 30 9 16 1002.9 1002.7 0.0
20/12:22am 17.2 14.2 14.7 85 1.4 ENE 24 35 13 19 1000.7 1000.5 0.0
20/12:00am 17.0 13.5 14.5 85 1.4 ENE 26 37 14 20 998.7 998.5 0.0
 
Date/Time
EDT
Temp
°C
App
Temp
°C
Dew
Point
°C
Rel
Hum
%
Delta-T
°C
Wind Press
QNH
hPa
Press
MSL
hPa
Rain since
9am
mm
Dir  Spd
km/h
Gust
km/h
Spd
kts
Gust
kts
19/11:30pm 16.8 13.2 14.1 84 1.5 ENE 26 37 14 20 999.1 998.9 0.0
19/11:00pm 16.7 12.1 13.6 82 1.8 ENE 30 41 16 22 1000.1 999.9 0.0
19/10:30pm 16.6 12.7 13.3 81 1.9 ENE 26 39 14 21 1001.1 1001.0 0.0
19/10:00pm 16.5 12.4 12.7 78 2.1 ENE 26 41 14 22 1002.6 1002.4 0.0
19/09:30pm 16.0 10.9 11.8 76 2.3 ENE 30 41 16 22 1002.9 1002.7 0.0
19/09:00pm 16.2 11.4 11.6 74 2.5 E 28 37 15 20 1003.4 1003.2 0.0
19/08:30pm 16.4 12.0 11.6 73 2.6 ENE 26 37 14 20 1004.5 1004.3 0.0
19/08:00pm 16.3 11.4 11.2 72 2.8 ENE 28 48 15 26 1004.5 1004.3 0.0
19/07:52pm 16.2 11.2 10.9 71 2.8 ENE 28 48 15 26 1004.6 1004.4 0.0
19/07:30pm 16.2 10.7 10.7 70 2.9 ENE 30 44 16 24 1005.0 1004.8 0.0
19/07:00pm 16.3 11.3 10.8 70 3.0 ENE 28 43 15 23 1005.7 1005.5 0.0
19/06:30pm 16.2 11.1 10.5 69 3.0 E 28 39 15 21 1006.7 1006.5 0.0
19/06:00pm 16.5 11.8 10.6 68 3.2 E 26 39 14 21 1007.4 1007.2 0.0
19/05:30pm 16.5 11.3 10.1 66 3.4 E 28 43 15 23 1007.6 1007.4 0.0
19/05:00pm 16.4 11.8 9.8 65 3.5 E 24 44 13 24 1008.1 1007.9 0.0
19/04:30pm 16.3 11.6 9.3 63 3.6 ENE 24 33 13 18 1008.4 1008.2 0.0
19/04:00pm 16.5 11.5 9.4 63 3.7 E 26 39 14 21 1008.6 1008.4 0.0
19/03:30pm 17.0 12.8 8.2 56 4.5 E 20 33 11 18 1009.5 1009.3 0.0
19/03:00pm 18.2 14.3 9.3 56 4.7 E 20 32 11 17 1010.1 1009.9 0.0
19/02:30pm 17.1 11.8 8.3 56 4.5 ESE 26 33 14 18 1010.7 1010.5 0.0
19/02:00pm 16.8 11.9 8.5 58 4.3 ESE 24 32 13 17 1011.3 1011.1 0.0
19/01:30pm 17.4 13.3 8.8 57 4.5 ESE 20 26 11 14 1012.0 1011.9 0.0
19/01:00pm 16.5 11.9 8.2 58 4.2 ESE 22 30 12 16 1012.6 1012.5 0.0
19/12:30pm 17.0 13.5 8.9 59 4.2 SE 17 24 9 13 1013.2 1013.1 0.0
19/12:00pm 17.4 14.4 9.3 59 4.2 SE 15 24 8 13 1013.5 1013.4 0.0
19/11:30am 16.8 13.0 9.0 60 4.0 ESE 19 28 10 15 1014.0 1013.9 0.0
19/11:00am 16.3 12.1 8.3 59 4.1 ESE 20 28 11 15 1014.0 1013.9 0.0
19/10:30am 16.2 11.7 8.4 60 4.0 ESE 22 30 12 16 1014.4 1014.3 0.0
19/10:00am 16.2 11.2 8.2 59 4.1 ESE 24 30 13 16 1014.6 1014.5 0.0
19/09:30am 15.6 10.5 7.6 59 4.0 ESE 24 33 13 18 1014.9 1014.8 0.0
19/09:00am 14.8 9.0 8.1 64 3.4 ESE 28 35 15 19 1015.2 1015.0 0.0
19/08:30am 15.4 10.0 7.9 61 3.8 ESE 26 33 14 18 1015.3 1015.1 0.0
19/08:00am 14.7 10.7 9.1 69 2.9 ESE 20 32 11 17 1015.4 1015.2 0.0
19/07:30am 14.1 10.1 8.3 68 2.9 E 19 30 10 16 1015.6 1015.4 0.0
19/07:00am 13.7 9.5 8.3 70 2.7 ESE 20 32 11 17 1015.6 1015.4 0.0
19/06:30am 13.4 8.8 8.0 70 2.7 ESE 22 30 12 16 1015.6 1015.4 0.0
19/06:00am 13.3 8.7 8.0 70 2.6 ESE 22 30 12 16 1015.6 1015.4 0.0
19/05:30am 13.2 8.2 7.9 70 2.6 ESE 24 35 13 19 1015.4 1015.2 0.0
19/05:00am 13.2 8.2 7.9 70 2.6 ESE 24 35 13 19 1015.4 1015.2 0.0
19/04:30am 13.1 8.3 7.5 69 2.7 ESE 22 30 12 16 1015.5 1015.3 0.0
19/04:00am 12.9 9.0 7.1 68 2.8 ESE 17 28 9 15 1015.9 1015.7 0.0
19/03:30am 12.8 9.2 6.8 67 2.9 SE 15 28 8 15 1016.0 1015.8 0.0
19/03:00am 13.0 9.1 7.2 68 2.8 SE 17 24 9 13 1016.4 1016.2 0.0
19/02:30am 13.1 10.1 7.8 70 2.6 SSE 13 20 7 11 1016.8 1016.6 0.0
19/02:00am 13.2 10.2 7.6 69 2.7 SE 13 22 7 12 1017.1 1016.9 0.0
19/01:30am 13.1 9.6 7.1 67 2.9 SSE 15 26 8 14 1017.3 1017.1 0.0
19/01:00am 13.2 10.0 6.8 65 3.1 S 13 22 7 12 1017.5 1017.3 0.0
19/12:30am 13.2 10.0 7.0 66 3.0 S 13 22 7 12 1017.7 1017.5 0.0
19/12:00am 13.4 10.3 7.2 66 3.0 SSW 13 28 7 15 1017.9 1017.7 0.0
 
Date/Time
EDT
Temp
°C
App
Temp
°C
Dew
Point
°C
Rel
Hum
%
Delta-T
°C
Wind Press
QNH
hPa
Press
MSL
hPa
Rain since
9am
mm
Dir  Spd
km/h
Gust
km/h
Spd
kts
Gust
kts
18/11:30pm 13.6 10.5 7.4 66 3.0 S 13 26 7 14 1018.3 1018.1 0.0
18/11:00pm 13.8 10.7 7.3 65 3.2 SW 13 20 7 11 1018.3 1018.1 0.0
18/10:30pm 13.9 11.2 7.4 65 3.2 W 11 15 6 8 1018.3 1018.1 0.0
18/10:00pm 14.1 10.9 6.7 61 3.6 SSW 13 22 7 12 1018.3 1018.1 0.0
18/09:30pm 14.1 11.4 7.4 64 3.3 WSW 11 19 6 10 1018.2 1018.0 0.0
18/09:00pm 14.2 11.5 7.3 63 3.4 WSW 11 15 6 8 1018.1 1017.9 0.0
18/08:30pm 14.8 12.3 8.1 64 3.4 SW 11 20 6 11 1018.2 1018.0 0.0
18/08:00pm 15.6 13.5 8.4 62 3.7 WSW 9 17 5 9 1018.2 1018.0 0.0
18/07:30pm 16.2 14.0 9.2 63 3.6 SW 11 19 6 10 1017.9 1017.7 0.0
18/07:00pm 16.5 14.2 9.0 61 3.9 SW 11 17 6 9 1017.7 1017.5 0.0
18/06:30pm 16.6 13.7 8.3 58 4.2 SW 13 19 7 10 1017.6 1017.4 0.0
18/06:00pm 16.3 13.2 7.3 55 4.5 SSW 13 17 7 9 1017.4 1017.2 0.0
18/05:30pm 17.6 15.3 7.6 52 5.1 SW 9 15 5 8 1017.5 1017.3 0.0
18/05:00pm 17.1 13.4 8.0 55 4.6 SSW 17 24 9 13 1017.5 1017.3 0.0
18/04:30pm 17.4 13.8 8.5 56 4.6 SW 17 22 9 12 1017.5 1017.3 0.0
18/04:00pm 16.7 12.9 8.9 60 4.0 SSW 19 28 10 15 1017.4 1017.2 0.0
18/03:30pm 17.3 13.7 8.2 55 4.7 SSW 17 24 9 13 1017.7 1017.5 0.0
18/03:00pm 17.3 12.9 6.5 49 5.3 SSW 19 28 10 15 1017.6 1017.4 0.0
18/02:30pm 17.0 13.2 7.4 53 4.8 SSW 17 28 9 15 1017.6 1017.4 0.0
18/02:00pm 16.5 12.2 7.7 56 4.4 SSW 20 30 11 16 1017.3 1017.1 0.0
18/01:30pm 16.1 11.4 7.6 57 4.3 SSW 22 35 12 19 1017.3 1017.1 0.0
18/01:00pm 16.3 11.5 8.8 61 3.9 SSW 24 35 13 19 1017.1 1016.9 0.0
18/12:30pm 16.3 10.4 7.5 56 4.4 SSW 28 35 15 19 1017.1 1016.9 0.0
18/12:00pm 16.5 11.0 7.7 56 4.4 SSW 26 37 14 20 1016.7 1016.5 0.0
18/11:30am 15.8 10.8 8.1 60 3.9 SSW 24 35 13 19 1016.5 1016.3 0.0
18/11:00am 15.8 11.2 8.3 61 3.8 SSW 22 33 12 18 1016.1 1015.9 0.0
18/10:30am 15.4 10.5 8.6 64 3.5 SSW 24 33 13 18 1016.0 1015.8 0.0
18/10:00am 15.9 10.4 7.7 58 4.1 SSW 26 35 14 19 1015.5 1015.3 0.0
18/09:30am 15.8 9.9 7.6 58 4.1 SW 28 37 15 20 1014.9 1014.8 0.0
18/09:00am 15.6 9.3 7.6 59 4.0 SSW 30 37 16 20 1014.4 1014.3 2.0
18/08:30am 15.5 9.0 9.0 65 3.3 SSW 33 44 18 24 1014.1 1014.0 2.0
18/08:00am 15.3 8.5 9.4 68 3.1 SW 35 50 19 27 1013.8 1013.7 2.0
18/07:30am 15.3 8.1 9.0 66 3.2 SW 37 50 20 27 1013.6 1013.5 2.0
18/07:08am 15.1 8.3 9.2 68 3.0 SW 35 54 19 29 1013.2 1013.1 2.0
18/07:00am 15.2 8.4 9.3 68 3.0 SW 35 44 19 24 1013.0 1012.9 2.0
18/06:30am 15.2 9.1 9.8 70 2.8 SW 32 43 17 23 1012.6 1012.5 2.0
18/06:16am 15.3 10.1 10.3 72 2.6 SSW 28 46 15 25 1012.3 1012.2 2.0
18/06:00am 15.0 8.7 9.8 71 2.7 SW 33 43 18 23 1011.9 1011.8 2.0
18/05:30am 15.0 9.4 10.0 72 2.6 SW 30 43 16 23 1011.3 1011.1 2.0
18/05:00am 15.2 9.3 10.6 74 2.4 SW 32 39 17 21 1010.9 1010.7 2.0
18/04:30am 15.1 9.6 10.7 75 2.3 SSW 30 41 16 22 1010.7 1010.5 2.0
18/04:00am 15.1 10.3 11.5 79 1.9 SW 28 41 15 22 1009.8 1009.6 2.0
18/03:30am 14.8 10.1 12.1 84 1.5 SW 28 43 15 23 1010.1 1009.9 2.0
18/03:00am 14.6 10.8 12.3 86 1.3 WSW 24 33 13 18 1010.2 1010.0 2.0
18/02:30am 14.7 9.7 12.2 85 1.4 WSW 30 43 16 23 1010.2 1010.0 1.8
18/02:08am 14.1 8.1 12.0 87 1.1 SW 35 54 19 29 1011.0 1010.8 1.8
18/02:00am 14.2 7.1 12.1 87 1.1 SW 41 54 22 29 1010.5 1010.3 1.8
18/01:54am 14.7 9.2 12.6 87 1.2 WSW 33 50 18 27 1010.3 1010.1 1.8
18/01:30am 15.6 10.9 13.3 86 1.3 W 30 37 16 20 1010.7 1010.5 1.6
18/01:00am 15.4 11.4 13.1 86 1.3 W 26 37 14 20 1010.9 1010.7 1.4
18/12:30am 15.2 11.3 13.4 89 1.0 W 26 33 14 18 1010.4 1010.2 1.4
18/12:00am 15.8 12.2 14.2 90 0.9 W 26 35 14 19 1010.9 1010.7 1.2
 
Date/Time
EDT
Temp
°C
App
Temp
°C
Dew
Point
°C
Rel
Hum
%
Delta-T
°C
Wind Press
QNH
hPa
Press
MSL
hPa
Rain since
9am
mm
Dir  Spd
km/h
Gust
km/h
Spd
kts
Gust
kts
17/11:30pm 16.3 12.8 14.5 89 1.0 W 26 35 14 19 1010.7 1010.5 1.2
17/11:00pm 17.0 12.9 15.0 88 1.2 W 30 41 16 22 1011.4 1011.3 0.2
17/10:30pm 16.9 14.8 14.7 87 1.3 W 19 24 10 13 1010.0 1009.8 0.0
17/10:00pm 16.9 14.8 14.7 87 1.3 W 19 24 10 13 1009.2 1009.0 0.0
17/09:30pm 16.9 14.5 14.5 86 1.4 W 20 35 11 19 1009.0 1008.8 0.0
17/09:27pm 17.0 14.3 14.6 86 1.4 WSW 22 35 12 19 1008.7 1008.5 0.0
17/09:00pm 17.0 11.8 14.6 86 1.4 SW 35 46 19 25 1008.7 1008.5 0.0
17/08:55pm 17.3 12.6 14.9 86 1.4 WSW 33 46 18 25 1008.9 1008.7 0.0
17/08:30pm 17.7 15.7 15.0 84 1.6 W 19 26 10 14 1009.1 1008.9 0.0
17/08:00pm 18.2 15.1 14.5 79 2.1 W 24 30 13 16 1009.3 1009.1 0.0
17/07:30pm 18.8 15.9 14.1 74 2.7 W 22 32 12 17 1008.0 1007.8 0.0
17/07:00pm 19.9 18.3 14.0 69 3.4 WNW 15 22 8 12 1006.9 1006.7 0.0
17/06:30pm 20.2 18.2 13.9 67 3.6 WNW 17 22 9 12 1006.3 1006.1 0.0
17/06:00pm 20.8 19.8 14.5 67 3.7 NW 13 19 7 10 1005.7 1005.5 0.0
17/05:30pm 20.1 18.2 14.2 69 3.4 WNW 17 20 9 11 1006.3 1006.1 0.0
17/05:00pm 20.6 19.0 13.8 65 3.9 WNW 15 22 8 12 1006.5 1006.3 0.0
17/04:30pm 20.9 19.4 14.3 66 3.9 NW 15 20 8 11 1006.8 1006.6 0.0
17/04:00pm 20.9 19.1 14.5 67 3.8 WNW 17 22 9 12 1007.3 1007.1 0.0
17/03:30pm 21.1 18.5 13.3 61 4.5 WNW 19 26 10 14 1007.6 1007.4 0.0
17/03:00pm 21.6 19.3 13.0 58 4.9 NW 17 28 9 15 1007.3 1007.1 0.0

Other Formats:

Comma delimited format used in spreadsheet applications
http://www.bom.gov.au/fwo/IDV60801/IDV60801.94842.axf

JavaScript Object Notation format (JSON) in row-major order
http://www.bom.gov.au/fwo/IDV60801/IDV60801.94842.json